Copeland, Kansas
Current Conditions -  °F | °C
As of 1:54 AM on Saturday 20 Dec 2014 (Local Time) from KGCK Reporting Station
Haze Haze  
Wind Chill: 26°   Ceiling: Unl
Heat Index: 26°   Visibility: 5mi
Dew Point: 26°   Wind: 3mph
Humidity: 100%   Direction: 250°WSW
Pressure: 30.07"   Gusts: NA
Location:  37.54°N, 100.63°W
Report Text: KGCK 200754Z AUTO 25003KT 5SM BR CLR M03/M03 A3007 RMK AO2 SLP196 T10331033
Loading
Personal Weather Stations






























Interactive Weather Map New forecast layout! Learn more

10-Day Weather Forecast

Advertisements
Track Severe Weather on mobile